Time;durP1;ratioP1;P1;durP2;ratioP2;P2;SDS_P1;SDS_P2;PMS_P1;PMS_P2;Temp;Humidity;BMP_temperature;BMP_pressure;BME280_temperature;BME280_humidity;BME280_pressure;Samples;Min_cycle;Max_cycle;Signal;HPM_P1;HPM_P2
2021/12/09 00:01:32;;;;;;;1.40;1.40;;;;;;;-143.85;100.00;70650.75;5094181;28;20031;-81
2021/12/09 00:04:02;;;;;;;0.63;0.63;;;;;;;-143.85;100.00;70650.75;5093844;28;20127;-79
2021/12/09 00:06:30;;;;;;;2.97;2.80;;;;;;;-143.85;100.00;70650.75;5094123;28;20024;-81
2021/12/09 00:09:00;;;;;;;1.80;1.70;;;;;;;-143.85;100.00;70650.75;5094047;28;20032;-80
2021/12/09 00:11:27;;;;;;;4.22;2.65;;;;;;;-143.85;100.00;70650.75;5093926;28;20031;-79
2021/12/09 00:13:53;;;;;;;0.82;0.82;;;;;;;-143.85;100.00;70650.75;5095321;28;20030;-81
2021/12/09 00:16:18;;;;;;;0.60;0.60;;;;;;;-143.85;100.00;70650.75;5094807;28;20036;-82
2021/12/09 00:18:44;;;;;;;0.47;0.47;;;;;;;-143.85;100.00;70650.75;5093957;28;20055;-79
2021/12/09 00:21:10;;;;;;;0.88;0.88;;;;;;;-143.85;100.00;70650.75;5093737;28;20479;-81
2021/12/09 00:23:35;;;;;;;1.50;1.48;;;;;;;-143.85;100.00;70650.75;5093508;28;20101;-80
2021/12/09 00:26:01;;;;;;;1.65;0.95;;;;;;;-143.85;100.00;70650.75;5094055;28;20036;-82
2021/12/09 00:28:27;;;;;;;1.73;1.65;;;;;;;-143.85;100.00;70650.75;5093601;28;20449;-81
2021/12/09 00:30:52;;;;;;;1.38;1.27;;;;;;;-143.85;100.00;70650.75;5093678;28;20039;-80
2021/12/09 00:33:18;;;;;;;2.72;2.47;;;;;;;-143.85;100.00;70650.75;5093797;28;20036;-81
2021/12/09 00:35:48;;;;;;;5.22;1.45;;;;;;;-143.85;100.00;70650.75;5093462;28;20047;-80
2021/12/09 00:38:21;;;;;;;0.30;0.30;;;;;;;-143.85;100.00;70650.75;5095339;28;20081;-78
2021/12/09 00:40:49;;;;;;;1.10;1.08;;;;;;;-143.85;100.00;70650.75;5093437;28;20111;-81
2021/12/09 00:43:17;;;;;;;1.08;1.08;;;;;;;-143.85;100.00;70650.75;5093299;28;20551;-80
2021/12/09 00:45:43;;;;;;;1.75;1.65;;;;;;;-143.85;100.00;70650.75;5094598;28;20115;-80
2021/12/09 00:48:09;;;;;;;0.50;0.50;;;;;;;-143.85;100.00;70650.75;5093040;28;20024;-82
2021/12/09 00:50:34;;;;;;;0.85;0.85;;;;;;;-143.85;100.00;70650.75;5093157;28;20053;-81
2021/12/09 00:53:00;;;;;;;2.38;2.17;;;;;;;-143.85;100.00;70650.75;5093279;28;20107;-81
2021/12/09 00:55:25;;;;;;;0.40;0.40;;;;;;;-143.85;100.00;70650.75;5093052;28;20464;-80
2021/12/09 00:57:50;;;;;;;1.58;1.52;;;;;;;-143.85;100.00;70650.75;5093700;28;20052;-80
2021/12/09 01:00:20;;;;;;;2.25;2.05;;;;;;;-143.85;100.00;70650.75;5093219;28;20376;-80
2021/12/09 01:02:45;;;;;;;1.30;1.30;;;;;;;-143.85;100.00;70650.75;5094481;28;20054;-80
2021/12/09 01:05:11;;;;;;;1.02;1.02;;;;;;;-143.85;100.00;70650.75;5092518;28;20468;-81
2021/12/09 01:07:39;;;;;;;0.98;0.98;;;;;;;-143.85;100.00;70650.75;5092760;28;20027;-80
2021/12/09 01:10:07;;;;;;;1.17;1.17;;;;;;;-143.85;100.00;70650.75;5092612;28;20032;-81
2021/12/09 01:12:33;;;;;;;1.08;1.08;;;;;;;-143.85;100.00;70650.75;5092586;28;20024;-80
2021/12/09 01:14:59;;;;;;;3.60;3.40;;;;;;;-143.85;100.00;70650.75;5093249;28;20410;-81
2021/12/09 01:17:25;;;;;;;1.42;1.35;;;;;;;-143.85;100.00;70650.75;5092311;28;20028;-80
2021/12/09 01:19:53;;;;;;;1.48;1.38;;;;;;;-143.85;100.00;70650.75;5092567;28;20085;-80
2021/12/09 01:22:19;;;;;;;1.52;1.52;;;;;;;-143.85;100.00;70650.75;5092702;28;20031;-81
2021/12/09 01:24:45;;;;;;;1.42;1.33;;;;;;;-143.85;100.00;70650.75;5092540;28;20031;-82
2021/12/09 01:27:11;;;;;;;1.02;1.02;;;;;;;-143.85;100.00;70650.75;5092953;28;20448;-81
2021/12/09 01:29:40;;;;;;;1.65;1.55;;;;;;;-143.85;100.00;70650.75;5093353;28;20050;-82
2021/12/09 01:32:08;;;;;;;1.92;1.90;;;;;;;-143.85;100.00;70650.75;5092307;28;20040;-81
2021/12/09 01:34:36;;;;;;;0.35;0.35;;;;;;;-143.85;100.00;70650.75;5092440;28;20035;-82
2021/12/09 01:37:04;;;;;;;2.50;1.25;;;;;;;-143.85;100.00;70650.75;5092410;28;20028;-82
2021/12/09 01:39:31;;;;;;;0.50;0.50;;;;;;;-143.85;100.00;70650.75;5092857;28;20556;-82
2021/12/09 01:41:58;;;;;;;1.40;1.40;;;;;;;-143.85;100.00;70650.75;5092246;28;20058;-82
2021/12/09 01:44:25;;;;;;;1.60;1.33;;;;;;;-143.85;100.00;70650.75;5092267;28;20173;-80
2021/12/09 01:46:51;;;;;;;1.27;1.27;;;;;;;-143.85;100.00;70650.75;5092112;28;20464;-81
2021/12/09 01:49:17;;;;;;;2.38;1.50;;;;;;;-143.85;100.00;70650.75;5092056;28;20031;-80
2021/12/09 01:51:46;;;;;;;1.42;1.33;;;;;;;-143.85;100.00;70650.75;5091883;28;20490;-78
2021/12/09 01:54:13;;;;;;;1.52;1.48;;;;;;;-143.85;100.00;70650.75;5091975;28;20024;-81
2021/12/09 01:56:39;;;;;;;0.30;0.30;;;;;;;-143.85;100.00;70650.75;5092389;28;20149;-79
2021/12/09 01:59:06;;;;;;;4.10;3.47;;;;;;;-143.85;100.00;70650.75;5091897;28;20486;-78
2021/12/09 02:01:33;;;;;;;3.28;3.15;;;;;;;-143.85;100.00;70650.75;5091795;28;20028;-83
2021/12/09 02:04:00;;;;;;;1.80;1.70;;;;;;;-143.85;100.00;70650.75;5091786;28;20096;-81
2021/12/09 02:06:27;;;;;;;0.47;0.47;;;;;;;-143.85;100.00;70650.75;5092377;28;20039;-80
2021/12/09 02:08:53;;;;;;;1.90;1.80;;;;;;;-143.85;100.00;70650.75;5091589;28;20062;-80
2021/12/09 02:11:20;;;;;;;0.95;0.95;;;;;;;-143.85;100.00;70650.75;5091545;28;20028;-79
2021/12/09 02:13:47;;;;;;;1.58;1.52;;;;;;;-143.85;100.00;70650.75;5092176;28;20115;-80
2021/12/09 02:16:13;;;;;;;0.93;0.90;;;;;;;-143.85;100.00;70650.75;5091564;28;20032;-79
2021/12/09 02:18:39;;;;;;;0.60;0.60;;;;;;;-143.85;100.00;70650.75;5091609;28;20067;-78
2021/12/09 02:21:06;;;;;;;0.75;0.75;;;;;;;-143.85;100.00;70650.75;5092802;28;20052;-81
2021/12/09 02:23:33;;;;;;;0.43;0.43;;;;;;;-143.85;100.00;70650.75;5091557;28;20067;-80
2021/12/09 02:25:58;;;;;;;1.77;1.67;;;;;;;-143.85;100.00;70650.75;5092055;28;20035;-78
2021/12/09 02:28:26;;;;;;;0.80;0.80;;;;;;;-143.85;100.00;70650.75;5091030;28;20028;-81
2021/12/09 02:30:52;;;;;;;3.50;2.60;;;;;;;-143.85;100.00;70650.75;5091040;28;20028;-77
2021/12/09 02:33:18;;;;;;;1.77;1.77;;;;;;;-143.85;100.00;70650.75;5092611;28;20043;-80
2021/12/09 02:35:43;;;;;;;1.83;1.73;;;;;;;-143.85;100.00;70650.75;5092413;28;20028;-79
2021/12/09 02:38:09;;;;;;;2.00;1.90;;;;;;;-143.85;100.00;70650.75;5092274;28;20471;-78
2021/12/09 02:40:36;;;;;;;1.13;1.13;;;;;;;-143.85;100.00;70650.75;5092341;28;20056;-79
2021/12/09 02:43:02;;;;;;;0.40;0.40;;;;;;;-143.85;100.00;70650.75;5091743;28;20036;-80
2021/12/09 02:45:28;;;;;;;1.70;1.67;;;;;;;-143.85;100.00;70650.75;5091888;28;20035;-80
2021/12/09 02:47:53;;;;;;;1.17;1.15;;;;;;;-143.85;100.00;70650.75;5091919;28;20411;-81
2021/12/09 02:50:19;;;;;;;1.00;1.00;;;;;;;-143.85;100.00;70650.75;5091527;28;20123;-79
2021/12/09 02:52:47;;;;;;;1.15;1.15;;;;;;;-143.85;100.00;70650.75;5091329;28;20081;-78
2021/12/09 02:55:13;;;;;;;;;;;;;;;-143.85;100.00;70650.75;5093496;28;20108;-80
2021/12/09 02:57:38;;;;;;;0.75;0.75;;;;;;;-143.85;100.00;70650.75;5091468;28;19943;-79
2021/12/09 03:00:06;;;;;;;0.57;0.57;;;;;;;-143.85;100.00;70650.75;5091384;28;20039;-80
2021/12/09 03:02:31;;;;;;;0.73;0.73;;;;;;;-143.85;100.00;70650.75;5091295;28;20035;-78
2021/12/09 03:05:02;;;;;;;1.20;1.20;;;;;;;-143.85;100.00;70650.75;5091290;28;20024;-78
2021/12/09 03:07:35;;;;;;;0.82;0.82;;;;;;;-143.85;100.00;70650.75;5091243;28;20085;-81
2021/12/09 03:10:18;;;;;;;0.68;0.68;;;;;;;-143.85;100.00;70650.75;5091701;28;20024;-80
2021/12/09 03:12:45;;;;;;;1.77;1.67;;;;;;;-143.85;100.00;70650.75;5092716;28;20032;-79
2021/12/09 03:15:10;;;;;;;3.40;3.20;;;;;;;-143.85;100.00;70650.75;5091089;28;20507;-78
2021/12/09 03:17:38;;;;;;;0.32;0.32;;;;;;;-143.85;100.00;70650.75;5091119;28;20024;-81
2021/12/09 03:20:06;;;;;;;1.40;1.30;;;;;;;-143.85;100.00;70650.75;5091145;28;20407;-77
2021/12/09 03:22:32;;;;;;;1.25;1.23;;;;;;;-143.85;100.00;70650.75;5092103;28;20181;-82
2021/12/09 03:24:57;;;;;;;1.42;1.33;;;;;;;-143.85;100.00;70650.75;5092034;28;20239;-81
2021/12/09 03:27:23;;;;;;;2.08;1.88;;;;;;;-143.85;100.00;70650.75;5090814;28;20055;-80
2021/12/09 03:29:48;;;;;;;0.80;0.80;;;;;;;-143.85;100.00;70650.75;5091779;28;20034;-79
2021/12/09 03:32:18;;;;;;;2.30;2.15;;;;;;;-143.85;100.00;70650.75;5092050;28;20555;-81
2021/12/09 03:34:44;;;;;;;1.27;1.27;;;;;;;-143.85;100.00;70650.75;5091385;28;20040;-80
2021/12/09 03:37:17;;;;;;;0.88;0.88;;;;;;;-143.85;100.00;70650.75;5091864;28;20028;-79
2021/12/09 03:39:43;;;;;;;0.93;0.93;;;;;;;-143.85;100.00;70650.75;5093186;28;20544;-80
2021/12/09 03:42:13;;;;;;;2.50;2.30;;;;;;;-143.85;100.00;70650.75;5094374;28;20510;-83
2021/12/09 03:44:39;;;;;;;1.67;1.63;;;;;;;-143.85;100.00;70650.75;5094172;28;20119;-79
2021/12/09 03:47:08;;;;;;;0.60;0.60;;;;;;;-143.85;100.00;70650.75;5094988;28;20082;-80
2021/12/09 03:49:34;;;;;;;0.47;0.47;;;;;;;-143.85;100.00;70650.75;5094215;28;20486;-81
2021/12/09 03:51:59;;;;;;;0.60;0.60;;;;;;;-143.85;100.00;70650.75;5094215;28;20036;-79
2021/12/09 03:54:25;;;;;;;4.68;2.00;;;;;;;-143.85;100.00;70650.75;5094730;28;20032;-81
2021/12/09 03:56:52;;;;;;;3.75;3.50;;;;;;;-143.85;100.00;70650.75;5094660;28;20031;-79
2021/12/09 03:59:18;;;;;;;1.65;1.55;;;;;;;-143.85;100.00;70650.75;5094424;28;20052;-81
2021/12/09 04:01:45;;;;;;;2.60;2.42;;;;;;;-143.85;100.00;70650.75;5093976;28;20467;-81
2021/12/09 04:04:11;;;;;;;1.42;1.38;;;;;;;-143.85;100.00;70650.75;5094806;28;20035;-80
2021/12/09 04:06:37;;;;;;;1.15;1.15;;;;;;;-143.85;100.00;70650.75;5093915;28;20036;-81
2021/12/09 04:09:06;;;;;;;1.00;1.00;;;;;;;-143.85;100.00;70650.75;5094140;28;20053;-79
2021/12/09 04:11:31;;;;;;;1.60;1.52;;;;;;;-143.85;100.00;70650.75;5093871;28;20059;-80
2021/12/09 04:13:57;;;;;;;0.82;0.82;;;;;;;-143.85;100.00;70650.75;5093940;28;20112;-79
2021/12/09 04:16:22;;;;;;;1.27;1.10;;;;;;;-143.85;100.00;70650.75;5093643;28;20032;-79
2021/12/09 04:18:48;;;;;;;0.57;0.57;;;;;;;-143.85;100.00;70650.75;5094364;28;20032;-80
2021/12/09 04:21:14;;;;;;;2.00;1.90;;;;;;;-143.85;100.00;70650.75;5093970;28;20059;-80
2021/12/09 04:23:40;;;;;;;1.75;1.67;;;;;;;-143.85;100.00;70650.75;5094107;28;20030;-81
2021/12/09 04:26:06;;;;;;;2.20;1.08;;;;;;;-143.85;100.00;70650.75;5094878;28;20031;-80
2021/12/09 04:28:33;;;;;;;3.17;2.90;;;;;;;-143.85;100.00;70650.75;5093509;28;20028;-79
2021/12/09 04:30:59;;;;;;;1.10;1.10;;;;;;;-143.85;100.00;70650.75;5092898;28;20075;-81
2021/12/09 04:33:24;;;;;;;0.50;0.50;;;;;;;-143.85;100.00;70650.75;5094378;28;20074;-80
2021/12/09 04:35:50;;;;;;;0.60;0.60;;;;;;;-143.85;100.00;70650.75;5094641;28;20470;-79
2021/12/09 04:38:15;;;;;;;0.40;0.40;;;;;;;-143.85;100.00;70650.75;5093437;28;20047;-79
2021/12/09 04:40:41;;;;;;;2.60;2.40;;;;;;;-143.85;100.00;70650.75;5093079;28;20024;-80
2021/12/09 04:43:07;;;;;;;0.40;0.40;;;;;;;-143.85;100.00;70650.75;5093345;28;20032;-78
2021/12/09 04:45:38;;;;;;;0.90;0.90;;;;;;;-143.85;100.00;70650.75;5093228;28;20020;-80
2021/12/09 04:48:05;;;;;;;0.90;0.90;;;;;;;-143.85;100.00;70650.75;5093291;28;20027;-80
2021/12/09 04:50:31;;;;;;;0.50;0.50;;;;;;;-143.85;100.00;70650.75;5093106;28;20020;-82
2021/12/09 04:52:56;;;;;;;0.50;0.50;;;;;;;-143.85;100.00;70650.75;5093221;28;20030;-81
2021/12/09 04:55:22;;;;;;;2.72;1.40;;;;;;;-143.85;100.00;70650.75;5093017;28;20449;-81
2021/12/09 04:57:48;;;;;;;0.60;0.60;;;;;;;-143.85;100.00;70650.75;5093423;28;20119;-80
2021/12/09 05:00:18;;;;;;;0.77;0.77;;;;;;;-143.85;100.00;70650.75;5092855;28;20028;-78
2021/12/09 05:03:04;;;;;;;1.55;1.33;;;;;;;-143.85;100.00;70650.75;5093002;28;20032;-80
2021/12/09 05:05:40;;;;;;;1.70;1.70;;;;;;;-143.85;100.00;70650.75;5094157;28;20476;-80
2021/12/09 05:08:10;;;;;;;1.65;1.55;;;;;;;-143.85;100.00;70650.75;5092880;28;20119;-81
2021/12/09 05:10:54;;;;;;;0.63;0.63;;;;;;;-143.85;100.00;70650.75;5093508;28;20052;-80
2021/12/09 05:13:22;;;;;;;1.42;1.40;;;;;;;-143.85;100.00;70650.75;5093020;28;20578;-80
2021/12/09 05:15:47;;;;;;;0.50;0.50;;;;;;;-143.85;100.00;70650.75;5092710;28;20032;-83
2021/12/09 05:18:14;;;;;;;15.43;13.45;;;;;;;-143.85;100.00;70650.75;5092785;28;20031;-81
2021/12/09 05:20:40;;;;;;;5.67;5.27;;;;;;;-143.85;100.00;70650.75;5092760;28;20028;-82
2021/12/09 05:23:05;;;;;;;1.55;1.50;;;;;;;-143.85;100.00;70650.75;5092650;28;20124;-82
2021/12/09 05:25:31;;;;;;;3.22;3.13;;;;;;;-143.85;100.00;70650.75;5092483;28;20476;-81
2021/12/09 05:27:57;;;;;;;2.10;1.30;;;;;;;-143.85;100.00;70650.75;5092594;28;20035;-80
2021/12/09 05:30:25;;;;;;;0.77;0.77;;;;;;;-143.85;100.00;70650.75;5093029;28;20093;-78
2021/12/09 05:32:51;;;;;;;3.72;2.10;;;;;;;-143.85;100.00;70650.75;5092584;28;20495;-79
2021/12/09 05:35:18;;;;;;;0.52;0.52;;;;;;;-143.85;100.00;70650.75;5092673;28;20176;-79
2021/12/09 05:37:44;;;;;;;1.52;1.48;;;;;;;-143.85;100.00;70650.75;5093333;28;20076;-79
2021/12/09 05:40:10;;;;;;;0.30;0.30;;;;;;;-143.85;100.00;70650.75;5092805;28;20024;-80
2021/12/09 05:42:36;;;;;;;0.60;0.60;;;;;;;-143.85;100.00;70650.75;5092600;28;20392;-80
2021/12/09 05:45:02;;;;;;;0.90;0.90;;;;;;;-143.85;100.00;70650.75;5092732;28;20024;-82
2021/12/09 05:47:30;;;;;;;1.27;1.23;;;;;;;-143.85;100.00;70650.75;5092755;28;20131;-80
2021/12/09 05:49:55;;;;;;;1.63;1.63;;;;;;;-143.85;100.00;70650.75;5092534;28;20024;-81
2021/12/09 05:52:21;;;;;;;1.10;1.10;;;;;;;-143.85;100.00;70650.75;5092076;28;20405;-80
2021/12/09 05:54:47;;;;;;;0.95;0.95;;;;;;;-143.85;100.00;70650.75;5092204;28;20475;-80
2021/12/09 05:57:13;;;;;;;0.90;0.90;;;;;;;-143.85;100.00;70650.75;5092073;28;20038;-82
2021/12/09 05:59:41;;;;;;;0.65;0.65;;;;;;;-143.85;100.00;70650.75;5092242;28;20089;-79
2021/12/09 06:02:08;;;;;;;0.30;0.30;;;;;;;-143.85;100.00;70650.75;5092684;28;20024;-79
2021/12/09 06:04:35;;;;;;;0.40;0.40;;;;;;;-143.85;100.00;70650.75;5093076;28;20028;-78
2021/12/09 06:07:00;;;;;;;1.15;1.05;;;;;;;-143.85;100.00;70650.75;5091885;28;20475;-80
2021/12/09 06:09:26;;;;;;;0.68;0.68;;;;;;;-143.85;100.00;70650.75;5091844;28;20028;-81
2021/12/09 06:11:51;;;;;;;1.17;1.17;;;;;;;-143.85;100.00;70650.75;5091551;28;20028;-81
2021/12/09 06:14:17;;;;;;;0.40;0.40;;;;;;;-143.85;100.00;70650.75;5093268;28;20031;-80
2021/12/09 06:16:43;;;;;;;1.27;1.15;;;;;;;-143.85;100.00;70650.75;5091691;28;20028;-81
2021/12/09 06:19:09;;;;;;;0.75;0.75;;;;;;;-143.85;100.00;70650.75;5091948;28;20186;-81
2021/12/09 06:21:34;;;;;;;0.77;0.75;;;;;;;-143.85;100.00;70650.75;5091900;28;20480;-81
2021/12/09 06:24:01;;;;;;;0.98;0.95;;;;;;;-143.85;100.00;70650.75;5091395;28;20494;-82
2021/12/09 06:26:27;;;;;;;0.30;0.30;;;;;;;-143.85;100.00;70650.75;5091791;28;20124;-81
2021/12/09 06:28:53;;;;;;;2.25;1.60;;;;;;;-143.85;100.00;70650.75;5091231;28;20372;-81
2021/12/09 06:31:20;;;;;;;0.95;0.95;;;;;;;-143.85;100.00;70650.75;5090956;28;20487;-80
2021/12/09 06:33:46;;;;;;;0.68;0.68;;;;;;;-143.85;100.00;70650.75;5091747;28;20032;-81
2021/12/09 06:36:11;;;;;;;1.38;1.30;;;;;;;-143.85;100.00;70650.75;5091264;28;20031;-81
2021/12/09 06:38:37;;;;;;;0.45;0.45;;;;;;;-143.85;100.00;70650.75;5091202;28;20528;-80
2021/12/09 06:41:03;;;;;;;0.82;0.82;;;;;;;-143.85;100.00;70650.75;5091291;28;20032;-80
2021/12/09 06:43:28;;;;;;;0.73;0.65;;;;;;;-143.85;100.00;70650.75;5091192;28;20024;-79
2021/12/09 06:45:56;;;;;;;1.08;1.08;;;;;;;-143.85;100.00;70650.75;5091186;28;20028;-81
2021/12/09 06:48:22;;;;;;;1.65;1.63;;;;;;;-143.85;100.00;70650.75;5091239;28;20062;-80
2021/12/09 06:50:47;;;;;;;0.90;0.90;;;;;;;-143.85;100.00;70650.75;5090975;28;20131;-79
2021/12/09 06:53:14;;;;;;;0.30;0.30;;;;;;;-143.85;100.00;70650.75;5091165;28;20548;-80
2021/12/09 06:55:41;;;;;;;0.30;0.30;;;;;;;-143.85;100.00;70650.75;5092530;28;20034;-78
2021/12/09 06:58:07;;;;;;;0.50;0.50;;;;;;;-143.85;100.00;70650.75;5090716;28;20036;-80
2021/12/09 07:00:34;;;;;;;1.65;0.95;;;;;;;-143.85;100.00;70650.75;5091194;28;20031;-83
2021/12/09 07:03:01;;;;;;;2.08;1.77;;;;;;;-143.85;100.00;70650.75;5091175;28;20024;-80
2021/12/09 07:05:29;;;;;;;0.85;0.85;;;;;;;-143.85;100.00;70650.75;5091132;28;20111;-80
2021/12/09 07:07:55;;;;;;;2.55;2.35;;;;;;;-143.85;100.00;70650.75;5091106;28;20024;-81
2021/12/09 07:10:23;;;;;;;0.30;0.30;;;;;;;-143.85;100.00;70650.75;5090611;28;20115;-82
2021/12/09 07:12:49;;;;;;;2.05;1.95;;;;;;;-143.85;100.00;70650.75;5090796;28;20558;-80
2021/12/09 07:15:17;;;;;;;3.95;3.60;;;;;;;-143.85;100.00;70650.75;5094308;28;20064;-79
2021/12/09 07:17:42;;;;;;;0.77;0.77;;;;;;;-143.85;100.00;70650.75;5094813;28;20028;-77
2021/12/09 07:20:12;;;;;;;3.10;2.85;;;;;;;-143.85;100.00;70650.75;5094915;28;20453;-82
2021/12/09 07:22:37;;;;;;;0.98;0.98;;;;;;;-143.85;100.00;70650.75;5094786;28;20083;-79
2021/12/09 07:25:04;;;;;;;3.05;2.90;;;;;;;-143.85;100.00;70650.75;5095277;28;20024;-80
2021/12/09 07:27:32;;;;;;;2.65;2.45;;;;;;;-143.85;100.00;70650.75;5094673;28;20024;-80
2021/12/09 07:29:58;;;;;;;7.43;6.22;;;;;;;-143.85;100.00;70650.75;5094726;28;20031;-80
2021/12/09 07:32:23;;;;;;;1.27;1.27;;;;;;;-143.85;100.00;70650.75;5093398;28;20423;-80
2021/12/09 07:34:49;;;;;;;6.70;6.07;;;;;;;-143.85;100.00;70650.75;5094370;28;20032;-79
2021/12/09 07:37:14;;;;;;;3.03;2.83;;;;;;;-143.85;100.00;70650.75;5096001;28;20081;-80
2021/12/09 07:39:40;;;;;;;0.98;0.98;;;;;;;-143.85;100.00;70650.75;5094321;28;20047;-79
2021/12/09 07:42:05;;;;;;;2.92;2.72;;;;;;;-143.85;100.00;70650.75;5094232;28;20027;-78
2021/12/09 07:44:31;;;;;;;3.35;3.03;;;;;;;-143.85;100.00;70650.75;5093980;28;20501;-78
2021/12/09 07:46:58;;;;;;;1.45;1.45;;;;;;;-143.85;100.00;70650.75;5094279;28;20102;-77
2021/12/09 07:49:25;;;;;;;1.60;1.52;;;;;;;-143.85;100.00;70650.75;5094462;28;20498;-79
2021/12/09 07:51:51;;;;;;;1.60;1.50;;;;;;;-143.85;100.00;70650.75;5094093;28;20031;-78
2021/12/09 07:54:17;;;;;;;0.98;0.95;;;;;;;-143.85;100.00;70650.75;5095449;28;20028;-80
2021/12/09 07:56:43;;;;;;;3.40;3.17;;;;;;;-143.85;100.00;70650.75;5095303;28;20024;-80
2021/12/09 07:59:11;;;;;;;5.35;2.95;;;;;;;-143.85;100.00;70650.75;5094056;28;20032;-78
2021/12/09 08:01:36;;;;;;;;;;;;;;;-143.85;100.00;70650.75;5094324;28;20415;-80
2021/12/09 08:04:02;;;;;;;3.55;2.20;;;;;;;-143.85;100.00;70650.75;5093870;28;19908;-80
2021/12/09 08:06:27;;;;;;;2.15;2.05;;;;;;;-143.85;100.00;70650.75;5093853;28;20081;-79
2021/12/09 08:08:53;;;;;;;0.85;0.85;;;;;;;-143.85;100.00;70650.75;5093629;28;20028;-80
2021/12/09 08:11:19;;;;;;;3.60;1.58;;;;;;;-143.85;100.00;70650.75;5093642;28;20035;-78
2021/12/09 08:13:44;;;;;;;1.10;1.10;;;;;;;-143.85;100.00;70650.75;5093854;28;20031;-80
2021/12/09 08:16:10;;;;;;;1.58;1.35;;;;;;;-143.85;100.00;70650.75;5094982;28;20020;-79
2021/12/09 08:18:53;;;;;;;4.35;3.38;;;;;;;-143.85;100.00;70650.75;5094964;28;20039;-80
2021/12/09 08:21:22;;;;;;;1.23;1.23;;;;;;;-143.85;100.00;70650.75;5093649;28;20032;-80
2021/12/09 08:23:47;;;;;;;2.25;2.15;;;;;;;-143.85;100.00;70650.75;5094137;28;20028;-80
2021/12/09 08:26:13;;;;;;;1.30;1.30;;;;;;;-143.85;100.00;70650.75;5093119;28;20024;-80
2021/12/09 08:28:38;;;;;;;1.85;1.20;;;;;;;-143.85;100.00;70650.75;5092826;28;20055;-80
2021/12/09 08:31:04;;;;;;;0.57;0.57;;;;;;;-143.85;100.00;70650.75;5093054;28;20079;-81
2021/12/09 08:33:29;;;;;;;5.07;4.72;;;;;;;-143.85;100.00;70650.75;5093541;28;20071;-75
2021/12/09 08:35:55;;;;;;;2.55;2.40;;;;;;;-143.85;100.00;70650.75;5093263;28;20074;-80
2021/12/09 08:38:21;;;;;;;2.75;2.55;;;;;;;-143.85;100.00;70650.75;5093289;28;20107;-80
2021/12/09 08:40:47;;;;;;;1.08;1.08;;;;;;;-143.85;100.00;70650.75;5093420;28;20055;-80
2021/12/09 08:43:13;;;;;;;2.80;2.60;;;;;;;-143.85;100.00;70650.75;5093570;28;20494;-79
2021/12/09 08:45:39;;;;;;;1.05;1.05;;;;;;;-143.85;100.00;70650.75;5093862;28;20035;-80
2021/12/09 08:48:06;;;;;;;12.50;2.30;;;;;;;-143.85;100.00;70650.75;5094456;28;20380;-78
2021/12/09 08:50:33;;;;;;;2.13;2.03;;;;;;;-143.85;100.00;70650.75;5093165;28;20051;-80
2021/12/09 08:53:03;;;;;;;2.50;2.37;;;;;;;-143.85;100.00;70650.75;5092689;28;20024;-79
2021/12/09 08:55:29;;;;;;;1.15;1.15;;;;;;;-143.85;100.00;70650.75;5092973;28;20027;-80
2021/12/09 08:57:55;;;;;;;1.48;1.38;;;;;;;-143.85;100.00;70650.75;5092945;28;20054;-80
2021/12/09 09:00:20;;;;;;;1.35;1.17;;;;;;;-143.85;100.00;70650.75;5094267;28;20016;-80
2021/12/09 09:02:49;;;;;;;2.00;1.90;;;;;;;-143.85;100.00;70650.75;5094220;28;20473;-79
2021/12/09 09:05:15;;;;;;;1.23;1.23;;;;;;;-143.85;100.00;70650.75;5092880;28;20505;-78
2021/12/09 09:07:42;;;;;;;0.82;0.82;;;;;;;-143.85;100.00;70650.75;5093838;28;20461;-80
2021/12/09 09:10:09;;;;;;;1.95;1.85;;;;;;;-143.85;100.00;70650.75;5092545;28;20023;-81
2021/12/09 09:12:36;;;;;;;0.87;0.87;;;;;;;-143.85;100.00;70650.75;5094175;28;20032;-80
2021/12/09 09:15:03;;;;;;;0.82;0.82;;;;;;;-143.85;100.00;70650.75;5093869;28;20027;-78
2021/12/09 09:17:28;;;;;;;12.32;2.50;;;;;;;-143.85;100.00;70650.75;5092479;28;20547;-80
2021/12/09 09:19:54;;;;;;;1.45;1.42;;;;;;;-143.85;100.00;70650.75;5092413;28;20024;-76
2021/12/09 09:22:19;;;;;;;2.80;2.63;;;;;;;-143.85;100.00;70650.75;5093661;28;20028;-80
2021/12/09 09:24:45;;;;;;;1.65;1.55;;;;;;;-143.85;100.00;70650.75;5093782;28;20057;-80
2021/12/09 09:27:10;;;;;;;3.05;2.38;;;;;;;-143.85;100.00;70650.75;5093058;28;20016;-80
